TCA7378 TFFR-TIST
Flight info
| Callsign | TCA7378 |
|---|---|
| Flight time | N/A |
| Altitude | 40000 |
| Route | BIMBO2F BIMBO DCT GABAR Y280 STIIV DCT KUTHO |
| Aircraft | C25B/M-SDE2E3FGHRWXY/LB1 |
Departure
| Time | 2026-04-25 20:21 |
|---|---|
| Airport | Maryse Condé International Airport (TFFR) |
Arrival
| Time | N/A |
|---|---|
| Airport | Cyril E. King Airport (TIST) |
| Time | Latitude | Longitude | Altitude | Speed | Heading |
|---|---|---|---|---|---|
| 2026-04-25 20:21 | 16.43521 | -61.62247 | 23363 ft | 316 kts | 296° |
| 2026-04-25 20:21 | 16.44644 | -61.64229 | 24112 ft | 320 kts | 296° |
| 2026-04-25 20:21 | 16.45785 | -61.66231 | 24849 ft | 323 kts | 296° |
| 2026-04-25 20:21 | 16.46930 | -61.68256 | 25580 ft | 326 kts | 296° |
| 2026-04-25 20:22 | 16.48074 | -61.70266 | 26303 ft | 328 kts | 296° |
| 2026-04-25 20:22 | 16.48466 | -61.70955 | 26545 ft | 328 kts | 296° |
| 2026-04-25 20:22 | 16.50411 | -61.74389 | 27715 ft | 333 kts | 295° |
| 2026-04-25 20:22 | 16.51595 | -61.76474 | 28417 ft | 335 kts | 295° |
| 2026-04-25 20:23 | 16.52786 | -61.78576 | 29097 ft | 338 kts | 295° |
| 2026-04-25 20:23 | 16.53989 | -61.80693 | 29766 ft | 340 kts | 295° |
| 2026-04-25 20:23 | 16.55191 | -61.82823 | 30419 ft | 343 kts | 295° |
| 2026-04-25 20:23 | 16.56414 | -61.84977 | 31029 ft | 346 kts | 295° |
| 2026-04-25 20:24 | 16.57625 | -61.87118 | 31570 ft | 350 kts | 295° |
| 2026-04-25 20:24 | 16.58871 | -61.89317 | 32132 ft | 354 kts | 295° |
| 2026-04-25 20:24 | 16.60126 | -61.91539 | 32852 ft | 348 kts | 295° |
| 2026-04-25 20:24 | 16.61317 | -61.93614 | 34371 ft | 319 kts | 294° |
| 2026-04-25 20:25 | 16.62412 | -61.95543 | 35556 ft | 305 kts | 292° |
| 2026-04-25 20:25 | 16.63635 | -61.97391 | 36045 ft | 315 kts | 300° |
| 2026-04-25 20:25 | 16.64942 | -61.99228 | 36556 ft | 316 kts | 297° |
| 2026-04-25 20:25 | 16.66232 | -62.01095 | 37078 ft | 318 kts | 298° |
| 2026-04-25 20:26 | 16.67525 | -62.02943 | 37577 ft | 321 kts | 298° |
| 2026-04-25 20:26 | 16.68854 | -62.04823 | 38058 ft | 323 kts | 298° |
| 2026-04-25 20:26 | 16.70190 | -62.06720 | 38540 ft | 325 kts | 298° |
| 2026-04-25 20:26 | 16.71529 | -62.08625 | 38981 ft | 327 kts | 297° |
| 2026-04-25 20:27 | 16.72878 | -62.10547 | 39418 ft | 329 kts | 298° |
| 2026-04-25 20:27 | 16.74236 | -62.12476 | 39875 ft | 330 kts | 298° |
| 2026-04-25 20:27 | 16.75613 | -62.14442 | 39962 ft | 343 kts | 298° |
| 2026-04-25 20:27 | 16.77044 | -62.16491 | 39972 ft | 356 kts | 298° |
| 2026-04-25 20:28 | 16.78534 | -62.18611 | 39980 ft | 368 kts | 298° |
| 2026-04-25 20:28 | 16.80051 | -62.20767 | 39971 ft | 378 kts | 299° |
| 2026-04-25 20:28 | 16.83165 | -62.25194 | 39980 ft | 378 kts | 298° |
| 2026-04-25 20:29 | 16.86270 | -62.29630 | 39965 ft | 379 kts | 298° |
| 2026-04-25 20:29 | 16.89394 | -62.34084 | 39969 ft | 381 kts | 298° |
| 2026-04-25 20:30 | 16.92523 | -62.38555 | 39960 ft | 382 kts | 298° |
| 2026-04-25 20:30 | 16.95635 | -62.43006 | 39963 ft | 382 kts | 298° |
| 2026-04-25 20:31 | 16.98777 | -62.47495 | 39951 ft | 384 kts | 298° |
| 2026-04-25 20:31 | 17.01924 | -62.52001 | 39956 ft | 384 kts | 298° |
| 2026-04-25 20:32 | 17.05070 | -62.56502 | 39952 ft | 383 kts | 298° |
| 2026-04-25 20:32 | 17.08179 | -62.60964 | 39955 ft | 383 kts | 298° |
| 2026-04-25 20:33 | 17.11317 | -62.65458 | 39956 ft | 382 kts | 298° |
| 2026-04-25 20:33 | 17.13408 | -62.68462 | 39953 ft | 382 kts | 298° |
| 2026-04-25 20:34 | 17.17576 | -62.74448 | 39954 ft | 382 kts | 298° |
| 2026-04-25 20:34 | 17.20688 | -62.78919 | 39942 ft | 383 kts | 298° |
| 2026-04-25 20:35 | 17.23820 | -62.83423 | 39943 ft | 383 kts | 298° |
| 2026-04-25 20:35 | 17.26955 | -62.87928 | 39944 ft | 383 kts | 298° |
| 2026-04-25 20:36 | 17.30082 | -62.92433 | 39944 ft | 382 kts | 298° |
| 2026-04-25 20:36 | 17.33189 | -62.96910 | 39944 ft | 382 kts | 298° |
| 2026-04-25 20:37 | 17.35601 | -63.01725 | 39939 ft | 368 kts | 283° |
| 2026-04-25 20:37 | 17.36884 | -63.06838 | 39940 ft | 362 kts | 277° |
| 2026-04-25 20:38 | 17.38074 | -63.11965 | 39942 ft | 362 kts | 277° |
| 2026-04-25 20:38 | 17.39235 | -63.17095 | 39943 ft | 362 kts | 277° |
| 2026-04-25 20:39 | 17.40404 | -63.22217 | 39944 ft | 362 kts | 277° |
| 2026-04-25 20:39 | 17.41178 | -63.25616 | 39944 ft | 362 kts | 277° |
| 2026-04-25 20:40 | 17.42727 | -63.32438 | 39882 ft | 363 kts | 277° |
| 2026-04-25 20:40 | 17.43315 | -63.35051 | 39441 ft | 374 kts | 277° |
| 2026-04-25 20:40 | 17.43924 | -63.37741 | 38940 ft | 385 kts | 277° |
| 2026-04-25 20:41 | 17.44542 | -63.40464 | 38430 ft | 394 kts | 277° |
| 2026-04-25 20:41 | 17.45184 | -63.43279 | 37902 ft | 401 kts | 277° |
| 2026-04-25 20:41 | 17.45831 | -63.46140 | 37370 ft | 406 kts | 277° |
| 2026-04-25 20:41 | 17.46483 | -63.49034 | 36821 ft | 411 kts | 277° |
| 2026-04-25 20:42 | 17.47143 | -63.51952 | 36273 ft | 414 kts | 277° |
| 2026-04-25 20:42 | 17.47798 | -63.54811 | 35734 ft | 393 kts | 277° |
| 2026-04-25 20:42 | 17.48415 | -63.57532 | 35220 ft | 375 kts | 277° |
| 2026-04-25 20:42 | 17.49002 | -63.60134 | 34734 ft | 359 kts | 277° |
| 2026-04-25 20:43 | 17.49560 | -63.62645 | 34258 ft | 349 kts | 277° |
| 2026-04-25 20:43 | 17.50122 | -63.65056 | 33803 ft | 343 kts | 279° |
| 2026-04-25 20:43 | 17.50956 | -63.67389 | 33352 ft | 341 kts | 286° |
| 2026-04-25 20:43 | 17.52046 | -63.69593 | 32907 ft | 339 kts | 291° |
| 2026-04-25 20:44 | 17.53165 | -63.71742 | 32456 ft | 333 kts | 290° |
| 2026-04-25 20:44 | 17.54247 | -63.73864 | 32016 ft | 328 kts | 290° |
| 2026-04-25 20:44 | 17.55320 | -63.75953 | 31587 ft | 323 kts | 290° |
| 2026-04-25 20:44 | 17.56386 | -63.78009 | 31159 ft | 319 kts | 290° |
| 2026-04-25 20:45 | 17.57424 | -63.80008 | 30742 ft | 314 kts | 290° |
| 2026-04-25 20:45 | 17.58454 | -63.82010 | 30326 ft | 310 kts | 290° |
| 2026-04-25 20:45 | 17.59470 | -63.83981 | 29917 ft | 306 kts | 290° |
| 2026-04-25 20:45 | 17.60475 | -63.85931 | 29513 ft | 302 kts | 290° |
| 2026-04-25 20:46 | 17.61470 | -63.87859 | 29114 ft | 300 kts | 290° |
| 2026-04-25 20:46 | 17.62453 | -63.89770 | 28719 ft | 296 kts | 290° |
| 2026-04-25 20:46 | 17.63420 | -63.91657 | 28328 ft | 293 kts | 291° |
| 2026-04-25 20:46 | 17.64394 | -63.93529 | 27940 ft | 291 kts | 291° |
| 2026-04-25 20:47 | 17.65340 | -63.95369 | 27559 ft | 289 kts | 291° |
| 2026-04-25 20:47 | 17.66286 | -63.97206 | 27179 ft | 285 kts | 291° |
| 2026-04-25 20:47 | 17.67226 | -63.99035 | 26801 ft | 284 kts | 291° |
| 2026-04-25 20:47 | 17.68164 | -64.00858 | 26412 ft | 284 kts | 291° |
| 2026-04-25 20:48 | 17.69102 | -64.02676 | 26044 ft | 284 kts | 291° |
| 2026-04-25 20:48 | 17.70036 | -64.04496 | 25671 ft | 283 kts | 292° |
| 2026-04-25 20:48 | 17.70970 | -64.06306 | 25299 ft | 283 kts | 292° |
| 2026-04-25 20:48 | 17.71900 | -64.08122 | 24925 ft | 282 kts | 292° |
| 2026-04-25 20:49 | 17.72821 | -64.09910 | 24555 ft | 282 kts | 292° |
| 2026-04-25 20:49 | 17.73751 | -64.11723 | 24181 ft | 282 kts | 293° |
| 2026-04-25 20:49 | 17.74683 | -64.13536 | 23806 ft | 282 kts | 293° |
| 2026-04-25 20:49 | 17.75615 | -64.15348 | 23432 ft | 282 kts | 293° |
| 2026-04-25 20:50 | 17.76544 | -64.17160 | 23058 ft | 282 kts | 293° |
| 2026-04-25 20:50 | 17.77474 | -64.18971 | 22683 ft | 282 kts | 293° |
| 2026-04-25 20:50 | 17.78401 | -64.20782 | 22308 ft | 282 kts | 293° |
| 2026-04-25 20:50 | 17.79319 | -64.22565 | 21939 ft | 282 kts | 293° |
| 2026-04-25 20:51 | 17.80244 | -64.24375 | 21565 ft | 281 kts | 293° |
| 2026-04-25 20:51 | 17.81170 | -64.26181 | 21192 ft | 281 kts | 293° |
| 2026-04-25 20:51 | 17.82094 | -64.27981 | 20821 ft | 280 kts | 293° |
| 2026-04-25 20:51 | 17.83019 | -64.29786 | 20439 ft | 280 kts | 293° |
| 2026-04-25 20:52 | 17.83937 | -64.31582 | 20075 ft | 280 kts | 294° |
| 2026-04-25 20:52 | 17.84240 | -64.32167 | 19955 ft | 280 kts | 293° |
| 2026-04-25 20:52 | 17.85777 | -64.35172 | 19333 ft | 279 kts | 294° |
| 2026-04-25 20:52 | 17.86684 | -64.36942 | 18968 ft | 279 kts | 294° |
| 2026-04-25 20:53 | 17.87598 | -64.38738 | 18598 ft | 279 kts | 294° |
| 2026-04-25 20:53 | 17.88518 | -64.40528 | 18231 ft | 278 kts | 294° |
| 2026-04-25 20:53 | 17.89432 | -64.42317 | 17869 ft | 278 kts | 294° |
| 2026-04-25 20:53 | 17.90347 | -64.44103 | 17498 ft | 278 kts | 294° |
| 2026-04-25 20:54 | 17.91252 | -64.45887 | 17130 ft | 277 kts | 294° |
| 2026-04-25 20:54 | 17.92166 | -64.47671 | 16762 ft | 277 kts | 294° |
| 2026-04-25 20:54 | 17.93069 | -64.49430 | 16398 ft | 277 kts | 294° |
| 2026-04-25 20:54 | 17.93973 | -64.51213 | 16030 ft | 276 kts | 294° |
| 2026-04-25 20:55 | 17.94888 | -64.52991 | 15658 ft | 277 kts | 294° |
| 2026-04-25 20:55 | 17.95793 | -64.54775 | 15286 ft | 277 kts | 294° |
| 2026-04-25 20:55 | 17.96705 | -64.56554 | 14918 ft | 277 kts | 294° |
| 2026-04-25 20:55 | 17.97609 | -64.58335 | 14551 ft | 276 kts | 295° |
| 2026-04-25 20:56 | 17.98518 | -64.60111 | 14184 ft | 276 kts | 295° |
| 2026-04-25 20:56 | 17.99424 | -64.61891 | 13810 ft | 276 kts | 295° |
| 2026-04-25 20:56 | 18.00316 | -64.63648 | 13451 ft | 276 kts | 295° |
| 2026-04-25 20:56 | 18.01225 | -64.65420 | 13088 ft | 276 kts | 295° |
| 2026-04-25 20:57 | 18.02124 | -64.67197 | 12722 ft | 275 kts | 295° |
| 2026-04-25 20:57 | 18.03031 | -64.68967 | 12357 ft | 275 kts | 295° |
| 2026-04-25 20:57 | 18.03931 | -64.70739 | 11986 ft | 275 kts | 295° |
| 2026-04-25 20:57 | 18.04828 | -64.72506 | 11620 ft | 274 kts | 295° |
| 2026-04-25 20:58 | 18.05730 | -64.74272 | 11263 ft | 274 kts | 295° |
| 2026-04-25 20:58 | 18.06324 | -64.75445 | 11020 ft | 274 kts | 295° |
| 2026-04-25 20:58 | 18.07516 | -64.77783 | 10539 ft | 274 kts | 295° |
| 2026-04-25 20:58 | 18.08411 | -64.79552 | 10175 ft | 274 kts | 295° |
| 2026-04-25 20:59 | 18.09311 | -64.81319 | 9815 ft | 274 kts | 295° |
| 2026-04-25 20:59 | 18.10208 | -64.83090 | 9447 ft | 275 kts | 295° |
| 2026-04-25 20:59 | 18.11114 | -64.84861 | 9080 ft | 276 kts | 295° |
| 2026-04-25 20:59 | 18.12010 | -64.86638 | 8715 ft | 276 kts | 295° |
| 2026-04-25 21:00 | 18.12918 | -64.88413 | 8350 ft | 276 kts | 295° |
| 2026-04-25 21:00 | 18.13212 | -64.88992 | 8230 ft | 275 kts | 295° |
| 2026-04-25 21:00 | 18.15601 | -64.93718 | 7248 ft | 275 kts | 295° |
| 2026-04-25 21:01 | 18.16504 | -64.95486 | 6883 ft | 274 kts | 296° |
| 2026-04-25 21:01 | 18.17113 | -64.96682 | 6633 ft | 274 kts | 295° |
| 2026-04-25 21:01 | 18.18489 | -64.98892 | 6150 ft | 275 kts | 309° |
| 2026-04-25 21:01 | 18.19329 | -64.99885 | 5913 ft | 273 kts | 307° |
| 2026-04-25 21:02 | 18.20454 | -65.01484 | 5553 ft | 272 kts | 302° |
| 2026-04-25 21:02 | 18.21600 | -65.03071 | 5190 ft | 273 kts | 307° |
| 2026-04-25 21:02 | 18.22798 | -65.04617 | 4830 ft | 273 kts | 306° |
| 2026-04-25 21:02 | 18.24352 | -65.06699 | 4342 ft | 273 kts | 306° |
| 2026-04-25 21:03 | 18.25149 | -65.07753 | 4101 ft | 273 kts | 306° |
| 2026-04-25 21:03 | 18.26705 | -65.09837 | 3618 ft | 273 kts | 306° |
| 2026-04-25 21:03 | 18.27493 | -65.10871 | 3380 ft | 273 kts | 308° |
| 2026-04-25 21:03 | 18.28991 | -65.12060 | 2995 ft | 274 kts | 338° |
| 2026-04-25 21:04 | 18.30875 | -65.12114 | 2639 ft | 275 kts | 15° |
| 2026-04-25 21:04 | 18.32464 | -65.11058 | 2288 ft | 272 kts | 50° |
| 2026-04-25 21:04 | 18.33260 | -65.09296 | 1940 ft | 267 kts | 82° |
| 2026-04-25 21:04 | 18.33351 | -65.06725 | 1496 ft | 266 kts | 90° |
| 2026-04-25 21:05 | 18.33391 | -65.05414 | 1264 ft | 266 kts | 90° |
| 2026-04-25 21:05 | 18.33458 | -65.03469 | 907 ft | 266 kts | 89° |
| 2026-04-25 21:05 | 18.33554 | -65.01520 | 643 ft | 264 kts | 89° |
| 2026-04-25 21:05 | 18.33629 | -64.99694 | 603 ft | 225 kts | 89° |
| 2026-04-25 21:06 | 18.33692 | -64.98453 | 678 ft | 249 kts | 88° |